createdAt,value
2017-09-17T16:18:30.906Z,45.26
2017-09-17T16:19:30.809Z,45.07
2017-09-17T16:21:25.081Z,46.71
2017-09-17T16:22:24.976Z,47.03
2017-09-17T16:24:19.264Z,49.46
2017-09-17T16:25:19.157Z,52.05
2017-09-17T16:27:13.431Z,53.30
2017-09-17T16:28:13.340Z,53.11
2017-09-17T16:30:07.604Z,55.47
2017-09-17T16:31:07.505Z,54.13
2017-09-17T16:33:01.771Z,55.86
2017-09-17T16:34:01.675Z,55.60
2017-09-17T16:35:54.956Z,54.19
2017-09-17T16:36:54.876Z,55.69
2017-09-17T17:08:09.062Z,53.56
2017-09-17T17:09:08.956Z,53.15
2017-09-17T17:11:03.236Z,53.56
2017-09-17T17:12:03.131Z,52.69
2017-09-17T17:13:57.413Z,53.08
2017-09-17T17:14:57.294Z,53.36
2017-09-17T17:16:51.581Z,52.89
2017-09-17T17:17:51.465Z,53.08
2017-09-17T17:19:45.739Z,54.13
2017-09-17T17:20:45.633Z,53.27
2017-09-17T17:22:39.926Z,54.13
2017-09-17T17:23:39.805Z,54.13
2017-09-17T17:25:34.075Z,54.13
2017-09-17T17:26:33.970Z,54.33
2017-09-17T17:28:28.243Z,55.16
2017-09-17T17:29:28.140Z,54.52
2017-09-17T17:31:22.452Z,54.80
2017-09-17T17:32:22.343Z,55.00
2017-09-17T17:33:22.266Z,54.61
2017-09-17T17:34:22.184Z,55.00
2017-09-17T17:35:22.138Z,55.29
2017-09-17T17:36:22.050Z,54.71
2017-09-17T17:37:21.958Z,54.80
2017-09-17T17:38:21.867Z,55.19
2017-09-17T17:39:21.784Z,55.77
2017-09-17T17:40:21.712Z,55.19
2017-09-17T17:41:21.630Z,55.38
2017-09-17T17:42:21.550Z,54.90
2017-09-17T17:43:21.468Z,56.24
2017-09-17T17:44:21.406Z,56.24
2017-09-17T17:45:21.320Z,55.67
2017-09-17T17:46:21.231Z,56.34
2017-09-17T17:47:21.150Z,56.73
2017-09-17T17:48:21.082Z,56.05
2017-09-17T17:49:21.002Z,56.05
2017-09-17T17:50:20.914Z,56.05
2017-09-17T17:51:20.830Z,55.74
2017-09-17T17:52:20.753Z,55.93
2017-09-17T17:53:20.673Z,56.34
2017-09-17T17:54:20.600Z,56.12
2017-09-17T17:55:20.526Z,56.02
2017-09-17T17:56:20.432Z,56.22
2017-09-17T17:57:20.355Z,56.98
2017-09-17T17:58:20.282Z,56.79
2017-09-17T17:59:20.221Z,56.51
2017-09-17T18:00:20.117Z,56.51
2017-09-17T18:01:20.036Z,56.79
2017-09-17T18:02:19.961Z,57.75
2017-09-17T18:03:19.879Z,56.79
2017-09-17T18:04:19.797Z,56.70
2017-09-17T18:05:19.724Z,55.74
2017-09-17T18:06:19.643Z,55.74
2017-09-17T18:07:19.560Z,55.83
2017-09-17T18:08:19.489Z,56.60
2017-09-17T18:09:19.404Z,56.89
2017-09-17T18:10:19.320Z,56.70
2017-09-17T18:11:19.243Z,56.51
2017-09-17T18:12:19.162Z,56.98
2017-09-17T18:13:19.084Z,56.51
2017-09-17T18:14:19.018Z,56.79
2017-09-17T18:15:18.931Z,56.79
2017-09-17T18:16:18.862Z,56.98
2017-09-17T18:17:18.763Z,56.02
2017-09-17T18:18:18.687Z,56.70
2017-09-17T18:19:18.608Z,55.83
2017-09-17T18:20:18.523Z,56.02
2017-09-17T18:21:18.448Z,55.74
2017-09-17T18:22:18.367Z,55.64
2017-09-17T18:23:18.289Z,56.70
2017-09-17T18:24:18.206Z,56.67
2017-09-17T18:25:18.944Z,56.79
2017-09-17T18:26:18.049Z,56.48
2017-09-17T18:27:17.971Z,56.96
2017-09-17T18:28:17.891Z,58.01
2017-09-17T18:29:17.806Z,57.43
2017-09-17T18:30:17.727Z,58.01
2017-09-17T18:31:17.649Z,57.82
2017-09-17T18:32:17.573Z,57.46
2017-09-17T18:33:17.485Z,57.63
2017-09-17T18:34:17.411Z,57.82
2017-09-17T18:35:17.326Z,57.72
2017-09-17T18:36:17.246Z,58.69
2017-09-17T18:37:17.175Z,59.42
2017-09-17T18:38:17.087Z,60.47
2017-09-17T18:39:17.004Z,60.03
2017-09-17T18:40:16.925Z,59.83
2017-09-17T18:41:16.853Z,60.35
2017-09-17T18:42:16.785Z,61.15
2017-09-17T18:43:16.682Z,60.38
2017-09-17T18:44:16.607Z,61.05
2017-09-17T18:45:16.521Z,60.96
2017-09-17T18:46:16.442Z,60.41
2017-09-17T18:47:16.366Z,59.83
2017-09-17T18:48:16.281Z,60.89
2017-09-17T18:49:16.209Z,60.38
2017-09-17T18:50:16.121Z,61.34
2017-09-17T18:51:16.052Z,61.15
2017-09-17T18:52:15.994Z,61.05
2017-09-17T18:53:15.887Z,60.12
2017-09-17T18:54:15.799Z,60.60
2017-09-17T18:55:15.718Z,60.60
2017-09-17T18:56:15.634Z,60.79
2017-09-17T18:57:15.574Z,60.19
2017-09-17T18:58:15.485Z,61.63
2017-09-17T18:59:15.402Z,61.82
2017-09-17T19:00:15.314Z,61.63
2017-09-17T19:01:15.231Z,61.18
2017-09-17T19:02:15.158Z,61.24
2017-09-17T19:03:15.077Z,61.75
2017-09-17T19:04:14.991Z,61.72
2017-09-17T19:05:14.921Z,61.66
2017-09-17T19:06:14.832Z,61.46
2017-09-17T19:07:14.749Z,61.75
2017-09-17T19:08:14.678Z,61.63
2017-09-17T19:09:14.590Z,62.59
2017-09-17T19:10:14.509Z,62.20
2017-09-17T19:11:14.427Z,62.59
2017-09-17T19:12:14.346Z,62.39
2017-09-17T19:13:14.272Z,63.32
2017-09-17T19:14:14.203Z,63.99
2017-09-17T19:15:14.117Z,63.54
2017-09-17T19:16:14.029Z,63.16
2017-09-17T19:17:13.946Z,62.30
2017-09-17T19:18:13.870Z,63.06
2017-09-17T19:19:13.784Z,62.77
2017-09-17T19:20:13.704Z,62.59
2017-09-17T19:21:13.633Z,62.39
2017-09-17T19:22:13.549Z,62.39
2017-09-17T19:23:13.464Z,63.06
2017-09-17T19:24:13.377Z,63.54
2017-09-17T19:25:13.302Z,63.45
2017-09-17T19:26:13.258Z,64.12
2017-09-17T19:27:13.142Z,63.16
2017-09-17T19:28:13.062Z,63.92
2017-09-17T19:29:12.985Z,64.56
2017-09-17T19:30:12.910Z,65.05
2017-09-17T19:31:12.821Z,65.81
2017-09-17T19:32:12.737Z,65.17
2017-09-17T19:33:12.655Z,63.92
2017-09-17T19:34:12.580Z,64.12
2017-09-17T19:35:12.513Z,63.45
2017-09-17T19:36:12.424Z,64.95
2017-09-17T19:37:12.336Z,64.56
2017-09-17T19:38:12.254Z,64.56
2017-09-17T19:39:12.171Z,64.31
2017-09-17T19:40:12.102Z,63.51
2017-09-17T19:41:12.005Z,63.70
2017-09-17T19:42:11.927Z,63.32
2017-09-17T19:43:11.860Z,63.13
2017-09-17T19:44:11.767Z,63.03
2017-09-17T19:45:11.696Z,64.34
2017-09-17T19:46:11.622Z,66.13
2017-09-17T19:47:11.549Z,65.94
2017-09-17T19:48:11.445Z,65.74
2017-09-17T19:49:11.371Z,65.55
2017-09-17T19:50:11.289Z,65.01
2017-09-17T19:51:11.217Z,64.22
2017-09-17T19:52:11.124Z,64.92
2017-09-17T19:53:11.043Z,64.25
2017-09-17T19:54:10.958Z,64.15
2017-09-17T19:55:10.875Z,64.12
2017-09-17T19:56:10.830Z,65.26
2017-09-17T19:57:10.711Z,65.55
2017-09-17T19:58:10.643Z,65.84
2017-09-17T19:59:10.545Z,65.68
2017-09-17T20:00:10.470Z,65.11
2017-09-17T20:01:10.388Z,65.36
2017-09-17T20:02:10.318Z,65.88
2017-09-17T20:03:10.219Z,64.72
2017-09-17T20:04:10.142Z,63.96
2017-09-17T20:05:10.077Z,64.05
2017-09-17T20:06:09.979Z,65.97
2017-09-17T20:07:09.897Z,65.58
2017-09-17T20:08:09.813Z,65.49
2017-09-17T20:09:09.745Z,65.62
2017-09-17T20:10:09.648Z,65.01
2017-09-17T20:11:09.582Z,65.05
2017-09-17T20:12:09.489Z,65.68
2017-09-17T20:13:09.428Z,65.30
2017-09-17T20:14:09.332Z,65.01
2017-09-17T20:15:09.257Z,64.85
2017-09-17T20:16:09.161Z,64.76
2017-09-17T20:17:09.087Z,64.18
2017-09-17T20:18:08.999Z,65.30
2017-09-17T20:19:08.958Z,64.63
2017-09-17T20:20:08.833Z,65.39
2017-09-17T20:21:08.762Z,64.85
2017-09-17T20:22:08.684Z,65.11
2017-09-17T20:23:08.603Z,65.20
2017-09-17T20:24:08.512Z,64.85
2017-09-17T20:25:08.433Z,64.92
2017-09-17T20:26:08.351Z,65.11
2017-09-17T20:27:08.262Z,64.72
2017-09-17T20:28:08.181Z,64.53
2017-09-17T20:29:08.115Z,64.28
2017-09-17T20:30:08.038Z,64.63
2017-09-17T20:31:07.942Z,64.18
2017-09-17T20:32:07.872Z,65.90
2017-09-17T20:33:07.784Z,67.47
2017-09-17T20:34:07.698Z,67.18
2017-09-17T20:35:07.615Z,66.99
2017-09-17T20:36:07.534Z,66.28
2017-09-17T20:37:07.452Z,68.20
2017-09-17T20:38:07.371Z,67.47
2017-09-17T20:39:07.288Z,67.82
2017-09-17T20:40:07.205Z,69.89
2017-09-17T20:41:07.127Z,69.82
2017-09-17T20:42:07.036Z,68.04
2017-09-17T20:43:06.961Z,66.51
2017-09-17T20:44:06.877Z,66.13
2017-09-17T20:45:06.790Z,66.74
2017-09-17T20:46:06.718Z,65.88
2017-09-17T20:47:06.631Z,65.78
2017-09-17T20:48:06.590Z,65.97
2017-09-17T20:49:06.468Z,65.88
2017-09-17T20:50:06.389Z,65.58
2017-09-17T20:51:06.306Z,65.78
2017-09-17T20:52:06.226Z,65.58
2017-09-17T20:53:06.139Z,65.55
2017-09-17T20:54:06.056Z,65.65
2017-09-17T20:55:05.974Z,65.68
2017-09-17T20:56:05.895Z,65.49
2017-09-17T20:57:05.819Z,65.49
2017-09-17T20:58:05.737Z,66.03
2017-09-17T20:59:05.655Z,65.68
2017-09-17T21:00:05.567Z,65.01
2017-09-17T21:01:05.486Z,65.20
2017-09-17T21:02:05.400Z,65.30
2017-09-17T21:03:05.350Z,64.82
2017-09-17T21:04:05.238Z,64.92
2017-09-17T21:05:05.156Z,65.01
2017-09-17T21:06:05.073Z,64.63
2017-09-17T21:07:04.994Z,64.82
2017-09-17T21:08:04.912Z,64.92
2017-09-17T21:09:04.830Z,64.63
2017-09-17T21:10:04.752Z,65.01
2017-09-17T21:11:04.670Z,64.82
2017-09-17T21:12:04.581Z,64.82
2017-09-17T21:13:04.499Z,65.74
2017-09-17T21:14:04.425Z,65.65
2017-09-17T21:15:04.340Z,65.55
2017-09-17T21:16:04.266Z,65.55
2017-09-17T21:17:04.176Z,64.88
2017-09-17T21:18:04.096Z,64.79
2017-09-17T21:19:04.015Z,65.74
2017-09-17T21:20:03.930Z,65.94
2017-09-17T21:21:03.855Z,65.74
2017-09-17T21:22:03.771Z,66.03
2017-09-17T21:23:03.694Z,66.03
2017-09-17T21:24:03.611Z,65.65
2017-09-17T21:25:03.534Z,65.94
2017-09-17T21:26:03.438Z,65.94
2017-09-17T21:27:03.358Z,65.74
2017-09-17T21:28:03.279Z,65.74
2017-09-17T21:29:03.195Z,66.86
2017-09-17T21:30:03.106Z,68.68
2017-09-17T21:31:03.041Z,68.20
2017-09-17T21:32:02.944Z,66.70
2017-09-17T21:33:02.862Z,66.32
2017-09-17T21:34:02.782Z,66.03
2017-09-17T21:35:02.697Z,68.45
2017-09-17T21:36:02.613Z,70.81
2017-09-17T21:37:02.535Z,71.76
2017-09-17T21:38:02.448Z,71.03
2017-09-17T21:39:02.370Z,69.54
2017-09-17T21:40:02.280Z,68.42
2017-09-17T21:41:02.196Z,67.05
2017-09-17T21:42:02.113Z,68.39
2017-09-17T21:43:02.036Z,69.06
2017-09-17T21:44:01.950Z,68.29
2017-09-17T21:45:01.868Z,67.08
2017-09-17T21:46:01.784Z,66.41
2017-09-17T21:47:01.704Z,67.14
2017-09-17T21:48:01.619Z,67.47
2017-09-17T21:49:01.535Z,67.05
2017-09-17T21:50:01.450Z,67.82
2017-09-17T21:51:01.376Z,69.31
2017-09-17T21:52:01.285Z,69.44
2017-09-17T21:53:01.217Z,69.15
2017-09-17T21:54:01.121Z,68.10
2017-09-17T21:55:01.037Z,68.01
2017-09-17T21:56:00.987Z,68.77
2017-09-17T21:57:00.883Z,68.49
2017-09-17T21:58:00.793Z,68.29
2017-09-17T21:59:00.711Z,67.91
2017-09-17T22:00:00.626Z,68.49
2017-09-17T22:01:00.553Z,68.01
2017-09-17T22:02:00.461Z,67.34
2017-09-17T22:03:00.379Z,69.44
2017-09-17T22:04:00.309Z,68.68
2017-09-17T22:05:00.219Z,68.39
2017-09-17T22:06:00.135Z,68.39
2017-09-17T22:07:00.064Z,67.91
2017-09-17T22:07:59.970Z,68.29
2017-09-17T22:08:59.884Z,68.96
2017-09-17T22:09:59.799Z,67.72
2017-09-17T22:10:59.722Z,67.91
2017-09-17T22:11:59.645Z,68.01
2017-09-17T22:12:59.571Z,67.76
2017-09-17T22:13:59.481Z,67.37
2017-09-17T22:14:59.392Z,68.39
2017-09-17T22:15:59.309Z,69.06
2017-09-17T22:16:59.227Z,68.58
2017-09-17T22:17:59.147Z,68.39
2017-09-17T22:18:59.064Z,68.96
2017-09-17T22:19:58.986Z,68.77
2017-09-17T22:20:58.895Z,68.29
2017-09-17T22:21:58.811Z,67.94
2017-09-17T22:22:58.729Z,67.53
2017-09-17T22:23:58.650Z,68.10
2017-09-17T22:24:58.565Z,68.29
2017-09-17T22:25:58.486Z,67.82
2017-09-17T22:26:58.409Z,67.82
2017-09-17T22:27:58.316Z,68.01
2017-09-17T22:28:58.233Z,67.72
2017-09-17T22:29:58.146Z,67.82
2017-09-17T22:30:58.076Z,69.41
2017-09-17T22:31:58.002Z,69.21
2017-09-17T22:32:57.902Z,68.77
2017-09-17T22:33:57.822Z,68.93
2017-09-17T22:34:57.741Z,68.87
2017-09-17T22:35:57.657Z,68.20
2017-09-17T22:36:57.573Z,68.20
2017-09-17T22:37:57.489Z,68.29
2017-09-17T22:38:57.408Z,68.84
2017-09-17T22:39:57.323Z,68.49
2017-09-17T22:40:57.254Z,68.29
2017-09-17T22:41:57.154Z,68.10
2017-09-17T22:42:57.080Z,68.01
2017-09-17T22:43:56.999Z,67.91
2017-09-17T22:44:56.917Z,67.82
2017-09-17T22:45:56.830Z,67.63
2017-09-17T22:46:56.750Z,67.72
2017-09-17T22:47:56.662Z,67.72
2017-09-17T22:48:56.581Z,67.69
2017-09-17T22:49:56.498Z,68.93
2017-09-17T22:50:56.413Z,69.50
2017-09-17T22:51:56.351Z,69.02
2017-09-17T22:52:56.250Z,68.55
2017-09-17T22:53:56.176Z,67.82
2017-09-17T22:54:56.088Z,68.20
2017-09-17T22:55:56.002Z,68.16
2017-09-17T22:56:55.918Z,68.16
2017-09-17T22:57:55.833Z,68.26
2017-09-17T22:58:55.754Z,67.88
2017-09-17T22:59:55.677Z,68.93
2017-09-17T23:00:55.597Z,68.64
2017-09-17T23:01:55.498Z,68.07
2017-09-17T23:02:55.422Z,67.69
2017-09-17T23:03:55.343Z,68.99
2017-09-17T23:04:55.252Z,69.66
2017-09-17T23:05:55.168Z,69.56
2017-09-17T23:06:55.096Z,69.02
2017-09-17T23:07:55.013Z,68.16
2017-09-17T23:08:54.917Z,67.97
2017-09-17T23:09:54.839Z,67.69
2017-09-17T23:10:54.760Z,67.88
2017-09-17T23:11:54.670Z,67.78
2017-09-17T23:12:54.587Z,67.78
2017-09-17T23:13:54.502Z,67.59
2017-09-17T23:14:54.418Z,67.84
2017-09-17T23:15:54.335Z,69.27
2017-09-17T23:16:54.252Z,69.70
2017-09-17T23:17:54.169Z,67.78
2017-09-17T23:18:54.087Z,67.49
2017-09-17T23:19:54.005Z,67.40
2017-09-17T23:20:53.920Z,67.11
2017-09-17T23:21:53.840Z,67.49
2017-09-17T23:22:53.754Z,67.21
2017-09-17T23:23:53.675Z,68.35
2017-09-17T23:24:53.590Z,68.07
2017-09-17T23:25:53.502Z,67.88
2017-09-17T23:26:53.420Z,67.30
2017-09-17T23:27:53.342Z,67.40
2017-09-17T23:28:53.261Z,67.69
2017-09-17T23:29:53.174Z,67.49
2017-09-17T23:30:53.088Z,67.94
2017-09-17T23:31:53.006Z,68.70
2017-09-17T23:32:52.924Z,69.18
2017-09-17T23:33:52.838Z,69.09
2017-09-17T23:34:52.755Z,68.99
2017-09-17T23:35:52.677Z,67.69
2017-09-17T23:36:52.586Z,68.32
2017-09-17T23:37:52.508Z,68.90
2017-09-17T23:38:52.419Z,68.07
2017-09-17T23:39:52.343Z,68.61
2017-09-17T23:40:52.253Z,69.18
2017-09-17T23:41:52.170Z,69.95
2017-09-17T23:42:52.089Z,68.99
2017-09-17T23:43:52.004Z,68.45
2017-09-17T23:44:51.919Z,68.04
2017-09-17T23:45:51.833Z,67.69
2017-09-17T23:46:51.749Z,68.32
2017-09-17T23:47:51.669Z,67.97
2017-09-17T23:48:51.585Z,67.69
2017-09-17T23:49:51.497Z,67.49
2017-09-17T23:50:51.421Z,67.88
2017-09-17T23:51:51.336Z,67.49
2017-09-17T23:52:51.250Z,66.83
2017-09-17T23:53:51.168Z,67.30
2017-09-17T23:54:51.085Z,66.63
2017-09-17T23:55:51.018Z,66.83
2017-09-17T23:56:50.919Z,68.13
2017-09-17T23:57:50.840Z,68.13
2017-09-17T23:58:50.756Z,68.80
2017-09-17T23:59:50.669Z,67.84
